Time;durP1;ratioP1;P1;durP2;ratioP2;P2;SDS_P1;SDS_P2;PMS_P1;PMS_P2;Temp;Humidity;BMP_temperature;BMP_pressure;BME280_temperature;BME280_humidity;BME280_pressure;Samples;Min_cycle;Max_cycle;Signal;HPM_P1;HPM_P2
2021/04/09 00:02:19;;;;;;;2.40;1.17;;;;;;;18.88;49.37;101544.03;5020876;28;20087;-74
2021/04/09 00:04:44;;;;;;;2.58;1.35;;;;;;;18.91;49.37;101549.31;5023691;28;20025;-73
2021/04/09 00:07:10;;;;;;;1.20;1.00;;;;;;;18.93;49.19;101549.31;5006120;28;20437;-75
2021/04/09 00:09:36;;;;;;;5.90;1.30;;;;;;;18.90;49.36;101546.66;5011675;28;20044;-72
2021/04/09 00:12:01;;;;;;;2.60;1.77;;;;;;;18.89;49.51;101540.56;5018699;28;20407;-72
2021/04/09 00:14:27;;;;;;;2.40;1.13;;;;;;;18.88;49.35;101537.91;5020375;28;20028;-73
2021/04/09 00:16:52;;;;;;;1.80;1.20;;;;;;;18.90;49.39;101542.31;5021352;28;20104;-74
2021/04/09 00:19:20;;;;;;;1.23;1.00;;;;;;;18.86;49.37;101523.94;5041660;28;20030;-74
2021/04/09 00:21:46;;;;;;;2.15;1.10;;;;;;;18.90;49.32;101534.44;5025815;28;20040;-74
2021/04/09 00:24:13;;;;;;;2.13;1.25;;;;;;;18.89;49.30;101537.06;5040084;28;20021;-75
2021/04/09 00:26:40;;;;;;;2.35;1.05;;;;;;;18.86;49.28;101529.16;5040052;28;20041;-74
2021/04/09 00:29:05;;;;;;;3.15;1.70;;;;;;;18.85;49.12;101512.56;5022853;28;20440;-73
2021/04/09 00:31:32;;;;;;;1.70;1.20;;;;;;;18.88;49.32;101515.22;5035409;28;20093;-76
2021/04/09 00:33:57;;;;;;;1.50;0.95;;;;;;;18.88;49.31;101523.06;5013029;28;20027;-74
2021/04/09 00:36:22;;;;;;;1.60;1.13;;;;;;;18.85;49.16;101520.44;5019203;28;20112;-73
2021/04/09 00:38:48;;;;;;;1.35;1.08;;;;;;;18.85;49.34;101524.78;5020458;28;20025;-74
2021/04/09 00:41:14;;;;;;;2.53;1.63;;;;;;;18.87;49.21;101526.56;5009268;28;20036;-73
2021/04/09 00:43:40;;;;;;;1.23;1.00;;;;;;;18.84;49.31;101515.19;5018241;28;20116;-73
2021/04/09 00:46:07;;;;;;;1.67;1.30;;;;;;;18.83;49.27;101519.53;5015629;28;20084;-73
2021/04/09 00:48:32;;;;;;;2.95;1.30;;;;;;;18.79;49.17;101503.81;5033883;28;20056;-73
2021/04/09 00:50:57;;;;;;;1.88;1.30;;;;;;;18.74;49.29;101501.16;5013754;28;20044;-73
2021/04/09 00:53:24;;;;;;;1.58;1.05;;;;;;;18.82;49.28;101512.59;5016932;28;20036;-74
2021/04/09 00:55:49;;;;;;;1.98;1.30;;;;;;;18.81;49.26;101504.72;5011031;28;20376;-73
2021/04/09 00:58:15;;;;;;;3.00;1.35;;;;;;;18.81;49.44;101497.72;5032155;28;20032;-72
2021/04/09 01:00:41;;;;;;;2.03;1.27;;;;;;;18.83;49.28;101509.06;5016843;28;20029;-73
2021/04/09 01:03:06;;;;;;;1.48;1.10;;;;;;;18.81;49.25;101495.09;5042828;28;20029;-73
2021/04/09 01:05:32;;;;;;;1.52;1.15;;;;;;;18.80;49.27;101490.72;5014052;28;20040;-73
2021/04/09 01:08:02;;;;;;;2.58;1.23;;;;;;;18.75;49.01;101481.09;5020660;28;20096;-74
2021/04/09 01:10:28;;;;;;;1.80;1.30;;;;;;;18.84;49.07;101488.97;5033638;28;20051;-74
2021/04/09 01:12:54;;;;;;;1.92;1.58;;;;;;;18.76;49.15;101486.34;5016614;28;20480;-73
2021/04/09 01:15:20;;;;;;;2.05;1.58;;;;;;;18.79;49.24;101486.34;5016638;28;20099;-74
2021/04/09 01:18:11;;;;;;;2.20;1.30;;;;;;;18.80;48.99;101485.50;5016800;28;20037;-73
2021/04/09 01:20:49;;;;;;;1.83;1.10;;;;;;;18.81;49.24;101476.75;5032055;28;20025;-73
2021/04/09 01:23:35;;;;;;;1.45;1.23;;;;;;;18.80;49.19;101468.88;5004350;28;20025;-73
2021/04/09 01:26:13;;;;;;;1.65;1.23;;;;;;;18.80;49.23;101468.88;5032630;28;20112;-73
2021/04/09 01:28:48;;;;;;;2.63;1.48;;;;;;;18.77;49.15;101468.88;5016885;28;20174;-73
2021/04/09 01:31:35;;;;;;;1.67;1.27;;;;;;;18.79;49.13;101462.78;5031534;28;20036;-73
2021/04/09 01:34:01;;;;;;;1.75;1.27;;;;;;;18.76;49.06;101460.13;5028901;28;20029;-73
2021/04/09 01:36:38;;;;;;;2.35;1.42;;;;;;;18.77;49.02;101455.78;5007540;28;20040;-72
2021/04/09 01:39:09;;;;;;;2.35;1.67;;;;;;;18.74;49.10;101456.63;5027527;28;20030;-73
2021/04/09 01:41:38;;;;;;;1.88;1.38;;;;;;;18.76;49.09;101460.13;5040489;28;20028;-73
2021/04/09 01:44:06;;;;;;;1.45;1.05;;;;;;;18.77;49.03;101461.88;5015682;28;20479;-73
2021/04/09 01:46:34;;;;;;;2.45;1.40;;;;;;;18.71;49.02;101451.38;5007521;28;20103;-73
2021/04/09 01:49:00;;;;;;;2.60;1.73;;;;;;;18.76;49.10;101461.88;5035617;28;20076;-73
2021/04/09 01:51:26;;;;;;;2.25;1.60;;;;;;;18.77;49.08;101461.00;5016577;28;20036;-73
2021/04/09 01:53:52;;;;;;;2.40;1.90;;;;;;;18.75;49.09;101458.38;5015713;28;20025;-73
2021/04/09 01:56:18;;;;;;;1.67;1.15;;;;;;;18.74;49.21;101450.50;5025072;28;20445;-73
2021/04/09 01:58:44;;;;;;;1.75;1.20;;;;;;;18.76;49.19;101454.91;5018358;28;20045;-73
2021/04/09 02:01:13;;;;;;;2.55;1.40;;;;;;;18.76;49.21;101447.03;5015095;28;20033;-73
2021/04/09 02:03:41;;;;;;;2.03;1.27;;;;;;;18.74;49.03;101434.78;5032351;28;20029;-73
2021/04/09 02:06:07;;;;;;;2.08;1.58;;;;;;;18.76;49.10;101440.91;5030665;28;20121;-72
2021/04/09 02:08:35;;;;;;;1.63;1.10;;;;;;;18.72;49.08;101436.53;5015813;28;20032;-73
2021/04/09 02:11:02;;;;;;;2.65;1.38;;;;;;;18.71;49.02;101430.41;5050854;28;20414;-72
2021/04/09 02:13:28;;;;;;;2.50;1.40;;;;;;;18.71;49.22;101429.53;5042925;28;20025;-73
2021/04/09 02:15:56;;;;;;;1.85;1.60;;;;;;;18.69;49.06;101426.06;5011654;28;20025;-73
2021/04/09 02:18:26;;;;;;;3.40;1.50;;;;;;;18.73;49.00;101428.69;5029399;28;20033;-73
2021/04/09 02:20:52;;;;;;;1.50;1.20;;;;;;;18.67;49.27;101409.47;5045527;28;20036;-73
2021/04/09 02:23:19;;;;;;;1.85;1.38;;;;;;;18.71;49.02;101430.41;5053456;28;20035;-73
2021/04/09 02:25:44;;;;;;;1.75;1.40;;;;;;;18.65;49.15;101412.06;5061362;28;20032;-73
2021/04/09 02:28:10;;;;;;;1.83;1.60;;;;;;;18.72;49.23;101432.16;5031619;28;20087;-72
2021/04/09 02:30:35;;;;;;;1.55;1.30;;;;;;;18.70;49.04;101426.03;5039814;28;20079;-72
2021/04/09 02:33:01;;;;;;;3.38;1.73;;;;;;;18.67;48.95;101415.56;5035043;28;20036;-73
2021/04/09 02:35:26;;;;;;;4.47;1.67;;;;;;;18.73;49.11;101415.56;5015879;28;20096;-72
2021/04/09 02:37:53;;;;;;;2.13;1.45;;;;;;;18.71;49.24;101419.94;5060202;28;20036;-74
2021/04/09 02:40:36;;;;;;;2.20;1.60;;;;;;;18.68;49.29;101411.22;5049158;28;20447;-73
2021/04/09 02:43:01;;;;;;;2.20;1.60;;;;;;;18.66;49.20;101411.19;5046844;28;20025;-73
2021/04/09 02:45:27;;;;;;;2.90;1.30;;;;;;;18.69;49.53;101421.69;5043305;28;20081;-73
2021/04/09 02:47:57;;;;;;;1.70;1.23;;;;;;;18.68;49.05;101406.84;5025306;28;20024;-72
2021/04/09 02:50:44;;;;;;;2.10;1.40;;;;;;;18.70;49.33;101414.69;5034557;28;20031;-73
2021/04/09 02:53:25;;;;;;;2.53;1.50;;;;;;;18.69;49.23;101420.81;5028769;28;20025;-73
2021/04/09 02:55:52;;;;;;;3.22;1.60;;;;;;;18.68;49.10;101408.59;5049923;28;20360;-73
2021/04/09 03:03:58;;;;;;;3.10;1.73;;;;;;;18.68;49.00;101399.00;6023567;22;21024;31
2021/04/09 03:06:24;;;;;;;3.35;1.50;;;;;;;18.64;49.13;101386.75;4913079;29;20506;-77
2021/04/09 03:08:50;;;;;;;3.25;1.40;;;;;;;18.65;48.99;101396.34;4905218;29;20390;-77
2021/04/09 03:11:15;;;;;;;2.05;1.25;;;;;;;18.66;49.06;101392.00;4909371;29;20036;-77
2021/04/09 03:13:41;;;;;;;2.55;1.33;;;;;;;18.67;49.07;101393.75;4895074;29;20028;-77
2021/04/09 03:16:08;;;;;;;1.95;1.38;;;;;;;18.67;49.20;101392.00;4905611;29;20024;-76
2021/04/09 03:18:37;;;;;;;2.08;1.40;;;;;;;18.66;49.10;101384.13;4916679;29;20351;-76
2021/04/09 03:21:04;;;;;;;2.30;1.58;;;;;;;18.65;49.08;101378.00;4908075;29;20044;-77
2021/04/09 03:23:29;;;;;;;2.63;1.45;;;;;;;18.66;49.13;101385.00;4895599;29;20031;-76
2021/04/09 03:25:54;;;;;;;2.13;1.27;;;;;;;18.66;49.10;101368.41;4910438;29;20036;-77
2021/04/09 03:28:20;;;;;;;4.18;1.67;;;;;;;18.64;49.15;101376.25;4915245;29;20043;-77
2021/04/09 03:30:49;;;;;;;2.25;1.45;;;;;;;18.64;49.17;101368.41;4923866;29;20038;-77
2021/04/09 03:33:24;;;;;;;1.80;1.27;;;;;;;18.63;49.14;101371.88;4894239;29;20033;-77
2021/04/09 03:35:50;;;;;;;2.28;1.52;;;;;;;18.60;49.19;101363.13;4927596;29;20043;-77
2021/04/09 03:38:16;;;;;;;1.75;1.23;;;;;;;18.62;49.14;101364.91;4899398;29;20040;-77
2021/04/09 03:40:42;;;;;;;2.92;1.60;;;;;;;18.62;49.09;101357.03;4898165;29;20424;-77
2021/04/09 03:43:09;;;;;;;1.60;1.00;;;;;;;18.63;49.18;101361.41;4926739;29;20036;-77
2021/04/09 03:45:35;;;;;;;2.58;1.27;;;;;;;18.60;49.30;101353.53;4901331;29;20035;-77
2021/04/09 03:48:00;;;;;;;1.33;1.13;;;;;;;18.62;49.31;101354.41;4914630;29;20438;-77
2021/04/09 03:50:26;;;;;;;1.88;1.50;;;;;;;18.57;49.31;101335.16;4916862;29;20506;-77
2021/04/09 03:52:51;;;;;;;2.53;1.52;;;;;;;18.61;49.33;101347.44;4911333;29;20491;-76
2021/04/09 03:55:17;;;;;;;1.95;1.35;;;;;;;18.59;49.31;101345.66;4905018;29;20070;-77
2021/04/09 03:57:43;;;;;;;5.43;1.80;;;;;;;18.58;49.19;101342.19;4891406;29;20447;-77
2021/04/09 04:00:08;;;;;;;2.45;1.20;;;;;;;18.61;49.22;101354.41;4913296;29;20058;-77
2021/04/09 04:02:34;;;;;;;1.90;1.10;;;;;;;18.59;49.49;101357.03;4894129;29;20040;-77
2021/04/09 04:04:59;;;;;;;1.77;1.30;;;;;;;18.60;49.30;101360.53;4911503;29;20058;-77
2021/04/09 04:07:25;;;;;;;2.03;1.52;;;;;;;18.60;49.31;101357.91;4931397;29;20062;-77
2021/04/09 04:09:50;;;;;;;2.13;1.20;;;;;;;18.56;49.29;101349.16;4935481;29;20074;-76
2021/04/09 04:12:15;;;;;;;4.68;0.98;;;;;;;18.50;49.33;101336.03;4937695;29;20083;-77
2021/04/09 04:14:41;;;;;;;1.80;1.20;;;;;;;18.55;49.29;101336.91;4923110;29;20087;-77
2021/04/09 04:17:06;;;;;;;1.30;0.93;;;;;;;18.52;49.33;101340.41;4931900;29;20532;-77
2021/04/09 04:19:32;;;;;;;3.38;1.25;;;;;;;18.56;49.59;101341.28;4919650;29;20083;-76
2021/04/09 04:21:57;;;;;;;2.45;1.40;;;;;;;18.56;49.39;101343.91;4919984;29;20075;-76
2021/04/09 04:24:22;;;;;;;1.63;1.10;;;;;;;18.52;49.49;101337.78;4936740;29;20023;-77
2021/04/09 04:26:48;;;;;;;1.23;1.00;;;;;;;18.54;49.37;101330.81;4913441;29;20047;-77
2021/04/09 04:29:13;;;;;;;1.88;1.20;;;;;;;18.52;49.35;101323.81;4921282;29;20386;-77
2021/04/09 04:31:39;;;;;;;2.20;1.00;;;;;;;18.55;49.36;101334.31;4905557;29;20191;-77
2021/04/09 04:34:05;;;;;;;1.75;1.20;;;;;;;18.54;49.34;101336.03;4946424;29;20032;-77
2021/04/09 04:36:30;;;;;;;2.13;1.38;;;;;;;18.51;49.41;101328.16;4937067;29;20027;-77
2021/04/09 04:38:55;;;;;;;1.77;1.20;;;;;;;18.54;49.43;101333.44;4919785;29;20035;-77
2021/04/09 04:41:21;;;;;;;2.47;1.15;;;;;;;18.53;49.36;101330.81;4937666;29;20051;-77
2021/04/09 04:43:46;;;;;;;2.58;1.40;;;;;;;18.53;49.38;101322.94;4912491;29;20039;-77
2021/04/09 04:46:11;;;;;;;2.42;1.20;;;;;;;18.44;49.36;101310.69;4928776;29;20027;-77
2021/04/09 04:48:37;;;;;;;1.98;1.15;;;;;;;18.52;49.54;101327.31;4932436;29;20031;-77
2021/04/09 04:51:02;;;;;;;2.05;1.50;;;;;;;18.52;49.21;101334.28;4928949;29;20434;-77
2021/04/09 04:53:28;;;;;;;2.60;1.30;;;;;;;18.51;49.25;101322.94;4931014;29;20019;-76
2021/04/09 04:55:54;;;;;;;2.28;1.30;;;;;;;18.49;49.42;101324.66;4940063;29;20035;-77
2021/04/09 04:58:19;;;;;;;1.50;1.10;;;;;;;18.51;49.25;101322.06;4928451;29;20087;-77
2021/04/09 05:00:45;;;;;;;1.52;1.15;;;;;;;18.50;49.37;101323.81;4928104;29;20039;-77
2021/04/09 05:03:10;;;;;;;1.92;1.27;;;;;;;18.49;49.46;101313.31;4915224;29;20031;-77
2021/04/09 05:05:35;;;;;;;3.10;1.40;;;;;;;18.50;49.58;101317.69;4885706;29;20135;-76
2021/04/09 05:08:01;;;;;;;1.95;1.33;;;;;;;18.49;49.74;101318.56;4927369;29;20031;-76
2021/04/09 05:10:26;;;;;;;1.23;1.00;;;;;;;18.51;49.50;101314.19;4917975;29;20084;-77
2021/04/09 05:12:52;;;;;;;1.55;1.02;;;;;;;18.52;49.69;101324.69;4920899;29;20043;-76
2021/04/09 05:15:17;;;;;;;2.40;1.60;;;;;;;18.52;49.49;101310.72;4919363;29;20557;-76
2021/04/09 05:17:42;;;;;;;1.80;1.17;;;;;;;18.54;49.71;101311.59;4917833;29;20099;-77
2021/04/09 05:20:08;;;;;;;2.67;1.50;;;;;;;18.48;49.91;101306.31;4925690;29;20049;-76
2021/04/09 05:22:34;;;;;;;3.75;1.63;;;;;;;18.52;50.27;101303.72;4919311;29;20058;-73
2021/04/09 05:24:59;;;;;;;3.42;1.30;;;;;;;18.53;49.76;101302.88;4907730;29;20091;-78
2021/04/09 05:27:25;;;;;;;2.58;1.52;;;;;;;18.65;50.03;101309.03;4915126;29;20513;-70
2021/04/09 05:29:51;;;;;;;1.90;1.60;;;;;;;18.72;49.82;101309.03;4911888;29;20055;-74
2021/04/09 05:32:17;;;;;;;4.75;1.90;;;;;;;18.77;49.59;101303.81;4919351;29;20027;-70
2021/04/09 05:34:42;;;;;;;4.07;1.55;;;;;;;18.76;49.83;101316.03;4896890;29;20406;-70
2021/04/09 05:37:08;;;;;;;3.10;1.50;;;;;;;18.75;49.87;101314.28;4912315;29;20028;-70
2021/04/09 05:39:36;;;;;;;4.03;1.73;;;;;;;18.76;49.88;101304.69;4906539;29;20711;-70
2021/04/09 05:42:02;;;;;;;2.85;1.85;;;;;;;18.84;49.89;101316.91;4915316;29;20036;-70
2021/04/09 05:44:30;;;;;;;4.13;2.00;;;;;;;18.85;49.74;101312.53;4918839;29;20474;-70
2021/04/09 05:46:56;;;;;;;2.30;1.48;;;;;;;18.80;49.90;101307.31;4917795;29;20434;-70
2021/04/09 05:49:21;;;;;;;6.68;1.73;;;;;;;18.91;49.82;101323.03;4918506;29;20040;-77
2021/04/09 05:51:46;;;;;;;5.25;2.13;;;;;;;18.96;49.79;101318.66;4936915;29;20043;-78
2021/04/09 05:54:12;;;;;;;5.57;1.15;;;;;;;18.84;49.83;101295.94;4914430;29;20032;-77
2021/04/09 05:56:37;;;;;;;3.55;1.75;;;;;;;18.92;49.83;101309.06;4907986;29;20091;-77
2021/04/09 05:59:02;;;;;;;3.22;1.38;;;;;;;19.01;49.54;101319.53;4939207;29;20031;-77
2021/04/09 06:01:28;;;;;;;3.40;2.40;;;;;;;18.93;49.61;101308.19;4928755;29;20036;-78
2021/04/09 06:03:54;;;;;;;3.10;1.50;;;;;;;19.01;49.80;101316.03;4913680;29;20501;-77
2021/04/09 06:06:19;;;;;;;5.25;2.20;;;;;;;19.00;49.78;101317.78;4909577;29;20046;-77
2021/04/09 06:08:45;;;;;;;3.15;1.45;;;;;;;19.08;49.47;101323.94;4922895;29;20040;-78
2021/04/09 06:11:10;;;;;;;2.70;1.70;;;;;;;19.08;49.54;101320.44;4934255;29;20072;-78
2021/04/09 06:13:36;;;;;;;2.72;1.45;;;;;;;19.02;49.56;101312.56;4916977;29;20028;-79
2021/04/09 06:16:02;;;;;;;2.55;1.50;;;;;;;19.11;49.53;101318.66;4928673;29;20024;-78
2021/04/09 06:18:28;;;;;;;2.88;1.50;;;;;;;19.16;49.32;101316.06;4933624;29;20031;-78
2021/04/09 06:20:53;;;;;;;3.17;1.40;;;;;;;19.10;49.58;101303.81;4887105;29;20035;-77
2021/04/09 06:23:18;;;;;;;3.05;2.08;;;;;;;19.12;49.66;101316.91;4918924;29;20038;-77
2021/04/09 06:25:44;;;;;;;2.65;1.55;;;;;;;19.17;49.33;101318.69;4910581;29;20028;-78
2021/04/09 06:28:09;;;;;;;6.95;2.08;;;;;;;19.17;48.95;101320.44;4911170;29;20047;-77
2021/04/09 06:30:34;;;;;;;4.95;1.33;;;;;;;19.16;49.27;101323.91;4908382;29;20549;-76
2021/04/09 06:33:00;;;;;;;4.45;2.30;;;;;;;19.25;49.25;101316.91;4904251;29;20040;-77
2021/04/09 06:35:25;;;;;;;3.83;1.90;;;;;;;19.34;48.94;101321.31;4902169;29;20478;-76
2021/04/09 06:37:51;;;;;;;2.97;1.70;;;;;;;19.39;49.06;101310.78;4931226;29;20086;-77
2021/04/09 06:40:17;;;;;;;4.85;1.83;;;;;;;19.43;48.74;101313.41;4891840;29;20032;-77
2021/04/09 06:42:43;;;;;;;5.85;1.73;;;;;;;19.44;48.92;101306.41;4922151;29;20486;-77
2021/04/09 06:45:09;;;;;;;4.25;1.42;;;;;;;19.46;48.86;101318.66;4900691;29;20028;-76
2021/04/09 06:47:35;;;;;;;4.93;1.95;;;;;;;19.51;48.83;101327.41;4924195;29;20127;-77
2021/04/09 06:50:01;;;;;;;3.67;1.48;;;;;;;19.47;48.96;101319.53;4885500;29;20434;-77
2021/04/09 06:52:27;;;;;;;2.85;1.55;;;;;;;19.46;48.98;101318.66;4911024;29;20035;-77
2021/04/09 06:54:53;;;;;;;3.83;1.33;;;;;;;19.48;48.95;101330.00;4945823;29;20027;-77
2021/04/09 06:57:19;;;;;;;2.92;1.42;;;;;;;19.47;48.88;101319.53;4919431;29;20095;-77
2021/04/09 06:59:46;;;;;;;3.78;1.40;;;;;;;19.49;49.40;101326.53;4934100;29;20035;-77
2021/04/09 07:02:18;;;;;;;4.18;1.58;;;;;;;19.47;49.09;101319.53;4911740;29;20032;-77
2021/04/09 07:04:45;;;;;;;3.83;1.23;;;;;;;19.47;49.18;101330.03;4929664;29;20031;-77
2021/04/09 07:07:15;;;;;;;4.47;1.67;;;;;;;19.49;49.06;101307.31;4914357;29;20102;-77
2021/04/09 07:09:42;;;;;;;3.08;1.80;;;;;;;19.47;48.97;101312.53;4930406;29;20032;-77
2021/04/09 07:12:20;;;;;;;4.38;1.95;;;;;;;19.54;48.94;101327.41;4932703;29;20027;-77
2021/04/09 07:15:03;;;;;;;3.88;1.30;;;;;;;19.59;48.87;101319.56;4914531;29;20067;-77
2021/04/09 07:17:36;;;;;;;2.03;1.10;;;;;;;19.62;48.77;101317.78;4916869;29;20047;-77
2021/04/09 07:20:15;;;;;;;2.00;0.98;;;;;;;19.65;48.76;101321.28;4919518;29;20106;-77
2021/04/09 07:22:42;;;;;;;2.40;1.38;;;;;;;19.67;48.66;101322.16;4932747;29;20035;-77
2021/04/09 07:25:09;;;;;;;3.92;1.70;;;;;;;19.66;48.77;101316.03;4926788;29;20554;-77
2021/04/09 07:27:36;;;;;;;3.45;1.42;;;;;;;19.60;48.87;101316.91;4915804;29;20095;-77
2021/04/09 07:30:02;;;;;;;2.08;1.25;;;;;;;19.62;49.02;101328.25;4903040;29;20044;-77
2021/04/09 07:32:29;;;;;;;4.28;1.45;;;;;;;19.66;48.51;101331.75;4912018;29;20051;-70
2021/04/09 07:34:57;;;;;;;5.45;1.92;;;;;;;19.73;48.66;101332.63;4920378;29;20024;-70
2021/04/09 07:37:23;;;;;;;1.95;0.95;;;;;;;19.75;48.76;101330.84;4925213;29;20118;-69
2021/04/09 07:39:57;;;;;;;3.55;1.65;;;;;;;19.79;48.70;101330.84;4930282;29;20050;-69
2021/04/09 07:42:34;;;;;;;1.67;1.00;;;;;;;19.80;48.42;101329.09;4925235;29;20031;-70
2021/04/09 07:45:03;;;;;;;2.00;1.20;;;;;;;19.76;48.68;101330.84;4920467;29;20036;-69
2021/04/09 07:47:28;;;;;;;1.70;1.02;;;;;;;19.78;48.53;101341.34;4923830;29;20039;-69
2021/04/09 07:50:09;;;;;;;2.30;1.00;;;;;;;19.77;48.89;101339.59;4908888;29;20434;-69
2021/04/09 07:52:46;;;;;;;2.90;1.48;;;;;;;19.74;48.62;101336.97;4930008;29;20036;-70
2021/04/09 07:55:22;;;;;;;4.32;1.30;;;;;;;19.74;49.21;101342.22;4919953;29;20039;-77
2021/04/09 07:57:48;;;;;;;2.40;0.95;;;;;;;19.70;48.77;101328.28;4911210;29;20040;-77
2021/04/09 08:00:20;;;;;;;4.38;2.03;;;;;;;19.76;48.75;101337.84;4916006;29;20032;-77
2021/04/09 08:02:47;;;;;;;1.55;0.98;;;;;;;19.70;48.65;101338.75;4928621;29;20487;-77
2021/04/09 08:05:17;;;;;;;2.38;1.08;;;;;;;19.77;48.85;101343.09;4903499;29;600038;-77
2021/04/09 08:07:42;;;;;;;2.58;1.40;;;;;;;19.78;48.84;101339.59;4929296;29;20039;-77
2021/04/09 08:10:12;;;;;;;3.10;1.40;;;;;;;19.77;48.80;101339.59;4938960;29;20075;-77
2021/04/09 08:12:39;;;;;;;2.17;1.08;;;;;;;19.79;48.90;101349.22;4926477;29;20031;-77
2021/04/09 08:15:12;;;;;;;2.15;1.27;;;;;;;19.81;48.70;101349.22;4927030;29;20427;-77
2021/04/09 08:17:38;;;;;;;2.13;0.90;;;;;;;19.79;48.54;101338.72;4928175;29;20032;-77
2021/04/09 08:20:14;;;;;;;2.50;1.08;;;;;;;19.84;48.76;101349.22;4935229;29;20031;-76
2021/04/09 08:22:41;;;;;;;2.47;1.45;;;;;;;19.80;48.43;101347.47;4933682;29;20028;-77
2021/04/09 08:25:08;;;;;;;3.78;1.48;;;;;;;19.76;48.70;101351.84;4888715;29;20024;-77
2021/04/09 08:27:35;;;;;;;1.20;0.85;;;;;;;19.71;49.21;101358.88;4925529;29;20439;-77
2021/04/09 08:30:02;;;;;;;1.80;0.82;;;;;;;19.59;48.82;101333.53;4919174;29;20038;-77
2021/04/09 08:32:27;;;;;;;2.05;1.10;;;;;;;19.66;48.89;101360.63;4931434;29;20028;-77
2021/04/09 08:34:54;;;;;;;2.42;1.20;;;;;;;19.57;48.92;101352.78;4905642;29;20039;-77
2021/04/09 08:37:20;;;;;;;3.90;1.33;;;;;;;19.65;48.93;101360.63;4922068;29;20036;-78
2021/04/09 08:39:46;;;;;;;1.52;1.10;;;;;;;19.63;48.92;101371.13;4925058;29;20028;-77
2021/04/09 08:42:14;;;;;;;2.13;1.08;;;;;;;19.57;49.13;101365.91;4921064;29;20076;-77
2021/04/09 08:44:40;;;;;;;1.20;0.80;;;;;;;19.58;48.95;101371.16;4924236;29;20083;-77
2021/04/09 08:47:07;;;;;;;1.70;0.90;;;;;;;19.49;48.80;101355.38;4928888;29;20036;-77
2021/04/09 08:49:32;;;;;;;1.52;1.05;;;;;;;19.56;49.16;101372.03;4918560;29;20027;-77
2021/04/09 08:52:01;;;;;;;2.47;1.20;;;;;;;19.52;49.19;101365.88;4922472;29;20043;-77
2021/04/09 08:54:30;;;;;;;2.58;1.08;;;;;;;19.55;48.84;101370.25;4922407;29;20474;-77
2021/04/09 08:57:05;;;;;;;2.30;1.30;;;;;;;19.52;49.16;101367.63;4903417;29;20450;-77
2021/04/09 09:00:01;;;;;;;2.65;1.20;;;;;;;19.54;49.23;101379.00;4919642;29;20091;-77
2021/04/09 09:02:27;;;;;;;1.45;1.08;;;;;;;19.52;49.01;101378.13;4912938;29;20447;-77
2021/04/09 09:05:08;;;;;;;3.22;1.20;;;;;;;19.54;49.38;101382.50;4914627;29;20060;-76
2021/04/09 09:07:42;;;;;;;1.90;1.00;;;;;;;19.51;49.42;101387.75;4920661;29;20031;-77
2021/04/09 09:10:40;;;;;;;1.15;0.80;;;;;;;19.48;49.25;101392.94;4922431;29;20028;-77
2021/04/09 09:13:05;;;;;;;1.63;1.02;;;;;;;19.48;49.23;101387.72;4921996;29;20401;-77
2021/04/09 09:15:45;;;;;;;2.30;1.20;;;;;;;19.47;49.36;101388.63;4922384;29;20024;-77
2021/04/09 09:18:23;;;;;;;4.43;1.05;;;;;;;19.46;49.33;101389.50;4926553;29;20099;-77
2021/04/09 09:21:13;;;;;;;2.47;1.30;;;;;;;19.45;49.20;101385.13;4928591;29;20452;-77
2021/04/09 09:23:56;;;;;;;4.35;1.38;;;;;;;19.42;49.27;101379.84;4916127;29;20363;-77
2021/04/09 09:26:39;;;;;;;1.70;0.80;;;;;;;19.43;49.38;101389.47;4922849;29;20059;-70
2021/04/09 09:29:16;;;;;;;2.13;1.30;;;;;;;19.41;49.42;101382.47;4909781;29;20024;-77
2021/04/09 09:31:59;;;;;;;2.17;1.10;;;;;;;19.41;49.39;101380.72;4919659;29;20104;-77
2021/04/09 09:34:25;;;;;;;1.70;1.02;;;;;;;19.41;49.26;101388.59;4910536;29;20397;-77
2021/04/09 09:37:07;;;;;;;2.58;1.20;;;;;;;19.40;49.39;101386.84;4903575;29;20044;-77
2021/04/09 09:39:50;;;;;;;1.60;1.05;;;;;;;19.39;49.29;101390.34;4921248;29;20040;-70
2021/04/09 09:42:28;;;;;;;2.22;1.40;;;;;;;19.38;49.46;101392.97;4922323;29;20404;-70
2021/04/09 09:44:58;;;;;;;1.33;0.90;;;;;;;19.37;49.47;101402.56;4916198;29;20032;-69
2021/04/09 09:47:41;;;;;;;1.15;0.80;;;;;;;19.36;49.58;101403.44;4923871;29;20035;-70
2021/04/09 09:50:11;;;;;;;3.22;1.33;;;;;;;19.30;49.53;101392.97;4929895;29;20051;-77
2021/04/09 09:52:46;;;;;;;2.58;1.50;;;;;;;19.34;49.51;101402.59;4920226;29;20028;-77
2021/04/09 09:55:31;;;;;;;1.33;1.02;;;;;;;19.33;49.34;101405.22;4914262;29;20026;-77
2021/04/09 09:58:10;;;;;;;2.78;1.60;;;;;;;19.30;49.53;101407.84;4934004;29;20027;-77
2021/04/09 10:00:58;;;;;;;1.15;0.95;;;;;;;19.29;49.71;101404.34;4927222;29;20078;-77
2021/04/09 10:03:30;;;;;;;1.77;1.17;;;;;;;19.31;49.47;101401.72;4919346;29;20028;-77
2021/04/09 10:06:02;;;;;;;1.92;1.40;;;;;;;19.31;49.68;101407.84;4909719;29;20410;-77
2021/04/09 10:08:30;;;;;;;1.17;0.77;;;;;;;19.28;49.50;101398.22;4921291;29;20067;-70
2021/04/09 10:11:02;;;;;;;1.80;1.40;;;;;;;19.34;49.46;101405.22;4921634;29;20027;-77
2021/04/09 10:13:38;;;;;;;2.05;1.13;;;;;;;19.35;49.53;101400.81;4927494;29;20107;-77
2021/04/09 10:16:09;;;;;;;1.88;0.93;;;;;;;19.34;49.30;101399.09;4914670;29;20027;-70
2021/04/09 10:18:36;;;;;;;1.88;1.10;;;;;;;19.34;49.30;101399.97;4920727;29;20167;-77
2021/04/09 10:21:18;;;;;;;1.95;1.13;;;;;;;19.35;49.33;101392.94;4905641;29;20121;-77
2021/04/09 10:23:46;;;;;;;2.20;1.17;;;;;;;19.35;49.33;101395.56;4927921;29;20105;-77
2021/04/09 10:26:12;;;;;;;2.58;1.30;;;;;;;19.35;49.42;101396.44;4926698;29;20156;-78
2021/04/09 10:28:40;;;;;;;2.65;0.88;;;;;;;19.33;49.44;101390.34;4910585;29;20038;-77
2021/04/09 10:31:08;;;;;;;3.33;1.00;;;;;;;19.38;49.18;101398.22;4923373;29;20083;-71
2021/04/09 10:33:45;;;;;;;2.25;1.10;;;;;;;19.40;49.34;101404.34;4925275;29;20505;-77
2021/04/09 10:36:24;;;;;;;1.30;0.93;;;;;;;19.43;49.31;101392.09;4922245;29;20031;-69
2021/04/09 10:38:53;;;;;;;2.03;0.77;;;;;;;19.55;49.18;101397.38;4927552;29;20404;-70
2021/04/09 10:41:36;;;;;;;5.38;1.40;;;;;;;19.56;49.10;101387.75;4920849;29;20020;-70
2021/04/09 10:44:31;;;;;;;2.30;1.15;;;;;;;19.59;49.25;101395.63;4934402;29;20055;-70
2021/04/09 10:47:06;;;;;;;1.80;1.33;;;;;;;19.66;49.26;101393.84;4929521;29;20036;-70
2021/04/09 10:49:39;;;;;;;1.65;1.15;;;;;;;19.70;49.13;101393.00;4933190;29;20478;-69
2021/04/09 10:52:09;;;;;;;2.17;1.10;;;;;;;19.71;49.36;101397.38;4932726;29;20082;-75
2021/04/09 10:54:37;;;;;;;2.90;1.17;;;;;;;19.72;49.23;101394.75;4932008;29;20469;-75
2021/04/09 10:57:05;;;;;;;1.05;0.80;;;;;;;19.80;49.18;101386.84;4932819;29;20059;-70
2021/04/09 10:59:36;;;;;;;2.35;0.90;;;;;;;19.77;49.16;101387.72;4930561;29;20035;-70
2021/04/09 11:02:03;;;;;;;1.70;1.00;;;;;;;19.78;49.19;101393.84;4922456;29;20114;-78
2021/04/09 11:04:30;;;;;;;1.92;1.15;;;;;;;19.81;49.22;101380.72;4933929;29;20070;-78
2021/04/09 11:07:05;;;;;;;3.30;0.90;;;;;;;19.91;49.08;101387.69;4932633;29;20402;-74
2021/04/09 11:09:42;;;;;;;3.30;1.45;;;;;;;19.87;49.24;101389.44;4933255;29;20028;-70
2021/04/09 11:12:16;;;;;;;1.50;0.85;;;;;;;19.92;49.21;101387.69;4932877;29;20036;-70
2021/04/09 11:14:42;;;;;;;1.13;0.80;;;;;;;19.97;49.06;101385.06;4932437;29;20363;-70
2021/04/09 11:17:07;;;;;;;1.00;0.70;;;;;;;19.94;49.06;101391.19;4931847;29;20083;-76
2021/04/09 11:19:35;;;;;;;1.98;1.00;;;;;;;19.95;49.07;101387.69;4929311;29;20493;-78
2021/04/09 11:22:05;;;;;;;1.05;0.70;;;;;;;20.03;49.09;101385.03;4933090;29;20115;-77
2021/04/09 11:24:37;;;;;;;1.83;1.27;;;;;;;20.02;49.07;101378.03;4934272;29;20036;-77
2021/04/09 11:27:17;;;;;;;1.92;1.30;;;;;;;20.02;49.09;101375.41;4916832;29;20062;-77
2021/04/09 11:29:43;;;;;;;1.88;0.82;;;;;;;19.96;49.25;101378.94;4929255;29;20035;-78
2021/04/09 11:32:12;;;;;;;1.80;0.90;;;;;;;19.88;49.25;101370.19;4922836;29;20602;-78
2021/04/09 11:34:40;;;;;;;1.45;0.90;;;;;;;19.86;49.34;101365.84;4929478;29;20020;-70
2021/04/09 11:37:06;;;;;;;2.30;0.95;;;;;;;19.82;49.39;101369.34;4908941;29;20552;-77
2021/04/09 11:39:31;;;;;;;1.42;0.95;;;;;;;19.84;49.37;101381.59;4917194;29;20039;-77